EHRD

Rotterdam Airport

Rotterdam, The Netherlands
METAR EHRD 220525Z AUTO 32014G24KT 260V020 9999 FEW038 13/06 Q1025 NOSIG
Observed Flight Rules
Jun-22 @ 05:25 UTC (26 minutes ago) Visual Flight Rules
Wind Visibility Clouds
320° at 14 knots
 Gusting to 24 knots
10,000+ meters
  • Few at 3,800' AGL
Temperatures Readings
Current 13°C / 55°F
Dewpoint 6°C / 43°F
Humidity 63%
Altimeter 30.27" Hg
Pressure 1025 hPa
Elevation -5
METAR EHRD 220525Z AUTO 32014G24KT 260V020 9999 FEW038 13/06 Q1025 NOSIG
Observed Flight Rules
Jun-22 @ 05:25 UTC
(26 minutes ago)
VFR
Wind Visibility
320° at 14 knots
 Gusting to 24 knots
10,000+ meters
Clouds
  • Few at 3,800' AGL
Temperature Dewpoint
13°C / 55°F 6°C / 43°F
Humidity Altimeter Pressure
63% 30.27" Hg 1025 hPa